Time;durP1;ratioP1;P1;durP2;ratioP2;P2;SDS_P1;SDS_P2;PMS_P1;PMS_P2;Temp;Humidity;BMP_temperature;BMP_pressure;BME280_temperature;BME280_humidity;BME280_pressure;Samples;Min_cycle;Max_cycle;Signal;HPM_P1;HPM_P2
2023/04/02 00:01:48;;;;;;;4.80;4.40;;;7.10;99.90;;;;;;5056363;28;20527;-69
2023/04/02 00:04:25;;;;;;;4.70;4.30;;;7.00;99.90;;;;;;5055931;28;20895;-70
2023/04/02 00:07:17;;;;;;;4.10;3.73;;;7.00;99.90;;;;;;5054608;28;20844;-70
2023/04/02 00:09:45;;;;;;;4.50;4.10;;;6.90;99.90;;;;;;5058216;28;20766;-70
2023/04/02 00:12:17;;;;;;;4.80;4.30;;;7.00;99.90;;;;;;5057025;28;20493;-70
2023/04/02 00:14:50;;;;;;;5.07;4.53;;;7.00;99.90;;;;;;5056262;28;20807;-70
2023/04/02 00:17:18;;;;;;;5.77;4.80;;;6.90;99.90;;;;;;5055084;28;20530;-69
2023/04/02 00:19:50;;;;;;;4.83;4.30;;;6.90;99.90;;;;;;5055723;28;20979;-70
2023/04/02 00:22:20;;;;;;;4.67;4.17;;;6.90;99.90;;;;;;5056547;28;20465;-69
2023/04/02 00:24:49;;;;;;;4.10;3.70;;;6.80;99.90;;;;;;5056685;28;20455;-69
2023/04/02 00:27:20;;;;;;;4.73;4.23;;;6.80;99.90;;;;;;5054031;28;20486;-69
2023/04/02 00:29:49;;;;;;;5.40;4.90;;;6.70;99.90;;;;;;5056485;28;20516;-68
2023/04/02 00:32:25;;;;;;;5.00;4.50;;;6.60;99.90;;;;;;5057030;28;20568;-68
2023/04/02 00:34:53;;;;;;;5.67;4.87;;;6.60;99.90;;;;;;5057651;28;20492;-69
2023/04/02 00:37:24;;;;;;;5.73;4.90;;;6.60;99.90;;;;;;5056430;28;20482;-69
2023/04/02 00:39:56;;;;;;;5.53;5.03;;;6.60;99.90;;;;;;5055149;28;20613;-68
2023/04/02 00:42:25;;;;;;;5.20;4.70;;;6.50;99.90;;;;;;5055316;28;20554;-67
2023/04/02 00:44:54;;;;;;;5.97;5.37;;;6.60;99.90;;;;;;5055405;28;20791;-66
2023/04/02 00:47:25;;;;;;;6.10;5.50;;;6.50;99.90;;;;;;5055496;28;20494;-69
2023/04/02 00:49:59;;;;;;;5.50;5.00;;;6.50;99.90;;;;;;5056188;28;20939;-65
2023/04/02 00:52:32;;;;;;;5.60;5.10;;;6.40;99.90;;;;;;5053990;28;20461;-66
2023/04/02 00:55:06;;;;;;;5.83;5.10;;;6.30;99.90;;;;;;5056771;28;20809;-69
2023/04/02 00:57:35;;;;;;;4.97;4.40;;;6.40;99.90;;;;;;5053884;28;20501;-69
2023/04/02 01:00:20;;;;;;;5.53;5.03;;;6.40;99.90;;;;;;5055850;28;20476;-68
2023/04/02 01:03:27;;;;;;;5.37;4.87;;;6.30;99.90;;;;;;5055988;28;20523;-69
2023/04/02 01:06:01;;;;;;;7.30;4.80;;;6.30;99.90;;;;;;5055590;28;20790;-70
2023/04/02 01:08:38;;;;;;;5.30;4.80;;;6.20;99.90;;;;;;5056849;28;20615;-69
2023/04/02 01:11:20;;;;;;;4.93;4.30;;;6.20;99.90;;;;;;5054478;28;20463;-69
2023/04/02 01:13:57;;;;;;;5.40;4.50;;;6.20;99.90;;;;;;5055667;28;20461;-69
2023/04/02 01:16:35;;;;;;;5.30;4.70;;;6.20;99.90;;;;;;5056193;28;20512;-69
2023/04/02 01:19:17;;;;;;;4.60;4.00;;;6.10;99.90;;;;;;5055375;28;20912;-68
2023/04/02 01:21:54;;;;;;;4.77;4.30;;;6.00;99.90;;;;;;5055241;28;20465;-70
2023/04/02 01:24:25;;;;;;;4.93;4.30;;;6.00;99.90;;;;;;5056206;28;20465;-69
2023/04/02 01:26:56;;;;;;;4.90;4.10;;;6.00;99.90;;;;;;5053865;28;20458;-70
2023/04/02 01:29:27;;;;;;;5.20;4.20;;;5.90;99.90;;;;;;5054959;28;20494;-69
2023/04/02 01:31:58;;;;;;;4.90;4.50;;;5.90;99.90;;;;;;5055857;28;20459;-70
2023/04/02 01:34:28;;;;;;;4.83;4.03;;;5.90;99.90;;;;;;5056472;28;20481;-70
2023/04/02 01:37:15;;;;;;;5.00;4.50;;;5.90;99.90;;;;;;5056087;28;20528;-70
2023/04/02 01:39:59;;;;;;;5.13;4.67;;;5.90;99.90;;;;;;5055265;28;20977;-70
2023/04/02 01:42:35;;;;;;;5.70;4.93;;;5.90;99.90;;;;;;5055407;28;20462;-67
2023/04/02 01:45:05;;;;;;;5.53;4.50;;;5.80;99.90;;;;;;5054239;28;20458;-70
2023/04/02 01:47:33;;;;;;;5.70;4.90;;;5.70;99.90;;;;;;5052965;28;20482;-70
2023/04/02 01:50:14;;;;;;;7.03;4.57;;;5.70;99.90;;;;;;5055412;28;20468;-68
2023/04/02 01:52:45;;;;;;;5.17;4.67;;;5.70;99.90;;;;;;5054535;28;20462;-71
2023/04/02 01:55:17;;;;;;;5.47;4.97;;;5.60;99.90;;;;;;5051447;28;20523;-67
2023/04/02 01:57:50;;;;;;;5.20;4.70;;;5.70;99.90;;;;;;5055910;28;20463;-70
2023/04/02 02:00:21;;;;;;;5.60;4.90;;;5.60;99.90;;;;;;5056690;28;20470;-70
2023/04/02 02:02:50;;;;;;;5.30;4.80;;;5.70;99.90;;;;;;5056843;28;20498;-70
2023/04/02 02:05:21;;;;;;;7.60;4.83;;;5.70;99.90;;;;;;5055740;28;20469;-70
2023/04/02 02:07:49;;;;;;;5.90;5.20;;;5.60;99.90;;;;;;5056868;28;20501;-70
2023/04/02 02:10:21;;;;;;;4.90;4.40;;;5.60;99.90;;;;;;5056595;28;20466;-69
2023/04/02 02:12:49;;;;;;;5.20;4.70;;;5.60;99.90;;;;;;5056985;28;20470;-70
2023/04/02 02:15:19;;;;;;;5.67;4.40;;;5.60;99.90;;;;;;5060341;28;20485;-70
2023/04/02 02:17:47;;;;;;;5.13;4.63;;;5.60;99.90;;;;;;5061000;28;20461;-70
2023/04/02 02:20:15;;;;;;;4.30;3.90;;;5.60;99.90;;;;;;5059575;28;20466;-70
2023/04/02 02:22:46;;;;;;;4.00;3.60;;;5.40;99.90;;;;;;5059209;28;20537;-71
2023/04/02 02:25:17;;;;;;;7.90;4.40;;;5.40;99.90;;;;;;5059541;28;20500;-70
2023/04/02 02:27:58;;;;;;;5.20;4.70;;;5.40;99.90;;;;;;5060702;28;20486;-70
2023/04/02 02:30:30;;;;;;;5.53;5.03;;;5.30;99.90;;;;;;5059095;28;20894;-70
2023/04/02 02:33:03;;;;;;;5.50;5.00;;;5.30;99.90;;;;;;5059214;28;20473;-69
2023/04/02 02:35:36;;;;;;;6.10;5.07;;;5.30;99.90;;;;;;5059360;28;20502;-65
2023/04/02 02:38:36;;;;;;;5.47;4.97;;;5.20;99.90;;;;;;5058781;28;20493;-69
2023/04/02 02:41:07;;;;;;;5.63;5.07;;;5.10;99.90;;;;;;5039459;28;21049;-69
2023/04/02 02:43:38;;;;;;;6.23;5.60;;;5.10;99.90;;;;;;5059080;28;20740;-68
2023/04/02 02:46:11;;;;;;;5.73;5.23;;;5.10;99.90;;;;;;5058480;28;20466;-69
2023/04/02 02:48:40;;;;;;;6.13;5.50;;;5.10;99.90;;;;;;5058167;28;20468;-68
2023/04/02 02:51:17;;;;;;;5.97;5.43;;;5.10;99.90;;;;;;5058540;28;20461;-65
2023/04/02 02:53:50;;;;;;;7.13;6.43;;;5.10;99.90;;;;;;5058427;28;20766;-69
2023/04/02 02:56:19;;;;;;;7.40;6.60;;;5.10;99.90;;;;;;5057496;28;20477;-68
2023/04/02 02:58:46;;;;;;;8.10;6.60;;;5.10;99.90;;;;;;5058040;28;20777;-67
2023/04/02 03:01:17;;;;;;;7.10;6.40;;;5.00;99.90;;;;;;5059640;28;20462;-67
2023/04/02 03:03:45;;;;;;;6.80;6.10;;;5.00;99.90;;;;;;5059553;28;20587;-68
2023/04/02 03:06:19;;;;;;;6.00;5.40;;;5.00;99.90;;;;;;5059874;28;20481;-70
2023/04/02 03:08:53;;;;;;;7.73;6.93;;;5.00;99.90;;;;;;5059590;28;20520;-71
2023/04/02 03:11:27;;;;;;;7.50;6.80;;;5.00;99.90;;;;;;5060712;28;20761;-71
2023/04/02 03:14:02;;;;;;;9.10;7.20;;;5.00;99.90;;;;;;5059636;28;20470;-69
2023/04/02 03:16:35;;;;;;;7.60;6.90;;;4.90;99.90;;;;;;5058888;28;20469;-70
2023/04/02 03:19:06;;;;;;;8.30;7.37;;;4.90;99.90;;;;;;5057236;28;20960;-68
2023/04/02 03:21:40;;;;;;;7.63;6.90;;;4.90;99.90;;;;;;5038474;28;20508;-65
2023/04/02 03:24:15;;;;;;;8.43;7.63;;;4.80;99.90;;;;;;5046475;28;20462;-67
2023/04/02 03:26:47;;;;;;;7.70;7.00;;;4.80;99.90;;;;;;5058495;28;20475;-68
2023/04/02 03:29:19;;;;;;;8.50;7.70;;;4.90;99.90;;;;;;5058696;28;20490;-65
2023/04/02 03:31:54;;;;;;;8.30;7.50;;;4.80;99.90;;;;;;5059220;28;20470;-66
2023/04/02 03:34:27;;;;;;;7.97;7.27;;;4.80;99.90;;;;;;5059336;28;20457;-67
2023/04/02 03:36:58;;;;;;;8.10;7.30;;;4.70;99.90;;;;;;5059115;28;20494;-67
2023/04/02 03:39:31;;;;;;;7.90;7.20;;;4.70;99.90;;;;;;5059687;28;20561;-67
2023/04/02 03:42:03;;;;;;;9.00;8.20;;;4.70;99.90;;;;;;5058514;28;20466;-67
2023/04/02 03:44:36;;;;;;;7.80;7.00;;;4.70;99.90;;;;;;5058818;28;20854;-67
2023/04/02 03:47:13;;;;;;;8.40;7.60;;;4.70;99.90;;;;;;5057947;28;20477;-66
2023/04/02 03:49:45;;;;;;;7.80;7.00;;;4.70;99.90;;;;;;5058173;28;20492;-68
2023/04/02 03:52:17;;;;;;;7.70;6.73;;;4.70;99.90;;;;;;5059339;28;20477;-67
2023/04/02 03:54:44;;;;;;;7.53;6.73;;;4.60;99.90;;;;;;5058895;28;20466;-66
2023/04/02 03:57:23;;;;;;;14.00;8.23;;;4.60;99.90;;;;;;5058336;28;20759;-67
2023/04/02 03:59:57;;;;;;;8.07;7.13;;;4.60;99.90;;;;;;5058472;28;20831;-67
2023/04/02 04:02:38;;;;;;;8.70;7.10;;;4.70;99.90;;;;;;5057761;28;20462;-68
2023/04/02 04:05:16;;;;;;;8.00;7.03;;;4.70;99.90;;;;;;5057312;28;20466;-66
2023/04/02 04:07:44;;;;;;;10.40;7.80;;;4.60;99.90;;;;;;5057579;28;20461;-67
2023/04/02 04:10:19;;;;;;;9.03;7.77;;;4.60;99.90;;;;;;5057500;28;20462;-66
2023/04/02 04:12:48;;;;;;;8.03;7.20;;;4.60;99.90;;;;;;5058397;28;20933;-67
2023/04/02 04:15:21;;;;;;;8.40;7.63;;;4.60;99.90;;;;;;5056944;28;20764;-68
2023/04/02 04:18:00;;;;;;;8.90;8.00;;;4.70;99.90;;;;;;5056717;28;20454;-66
2023/04/02 04:20:34;;;;;;;8.27;7.47;;;4.60;99.90;;;;;;5056398;28;20501;-67
2023/04/02 04:23:18;;;;;;;9.50;8.60;;;4.60;99.90;;;;;;5057095;28;20453;-67
2023/04/02 04:25:48;;;;;;;8.33;7.53;;;4.50;99.90;;;;;;5056946;28;20473;-67
2023/04/02 04:28:24;;;;;;;9.27;8.37;;;4.50;99.90;;;;;;5056574;28;20494;-67
2023/04/02 04:31:00;;;;;;;7.73;6.93;;;4.50;99.90;;;;;;5056723;28;20882;-67
2023/04/02 04:33:38;;;;;;;9.77;7.93;;;4.50;99.90;;;;;;5055711;28;20466;-66
2023/04/02 04:36:17;;;;;;;8.63;7.73;;;4.40;99.90;;;;;;5057428;28;20470;-67
2023/04/02 04:38:54;;;;;;;9.23;8.20;;;4.30;99.90;;;;;;5057627;28;20486;-66
2023/04/02 04:41:24;;;;;;;10.37;8.73;;;4.30;99.90;;;;;;5054978;28;20462;-66
2023/04/02 04:43:54;;;;;;;10.13;9.13;;;4.30;99.90;;;;;;5054800;28;20466;-65
2023/04/02 04:46:27;;;;;;;9.90;8.43;;;4.30;99.90;;;;;;5056464;28;20481;-67
2023/04/02 04:49:02;;;;;;;10.17;8.80;;;4.30;99.90;;;;;;5057046;28;20770;-67
2023/04/02 04:51:33;;;;;;;10.17;9.17;;;4.20;99.90;;;;;;5057539;28;20461;-67
2023/04/02 04:54:01;;;;;;;10.13;7.50;;;4.20;99.90;;;;;;5057956;28;20477;-67
2023/04/02 04:56:30;;;;;;;10.90;8.90;;;4.20;99.90;;;;;;5056993;28;20528;-67
2023/04/02 04:59:02;;;;;;;9.20;7.80;;;4.30;99.90;;;;;;5056394;28;20469;-67
2023/04/02 05:01:35;;;;;;;10.33;8.50;;;4.30;99.90;;;;;;5056470;28;20476;-66
2023/04/02 05:04:10;;;;;;;8.43;7.63;;;4.30;99.90;;;;;;5053896;28;20464;-67
2023/04/02 05:06:42;;;;;;;10.27;8.70;;;4.30;99.90;;;;;;5054729;28;20465;-67
2023/04/02 05:09:16;;;;;;;10.80;9.70;;;4.40;99.90;;;;;;5055735;28;20490;-67
2023/04/02 05:11:47;;;;;;;10.20;9.10;;;4.30;99.90;;;;;;5054904;28;20564;-66
2023/04/02 05:14:23;;;;;;;10.57;9.50;;;4.30;99.90;;;;;;5054405;28;20557;-66
2023/04/02 05:16:59;;;;;;;11.63;10.43;;;4.40;99.90;;;;;;5054399;28;20466;-64
2023/04/02 05:19:34;;;;;;;16.87;10.03;;;4.20;99.90;;;;;;5052961;28;20458;-66
2023/04/02 05:22:12;;;;;;;13.00;11.30;;;4.20;99.90;;;;;;5054932;28;20466;-64
2023/04/02 05:24:54;;;;;;;13.97;11.27;;;4.20;99.90;;;;;;5054131;28;20466;-64
2023/04/02 05:27:31;;;;;;;11.37;10.03;;;4.10;99.90;;;;;;5033947;28;20466;-66
2023/04/02 05:30:07;;;;;;;12.47;10.33;;;4.10;99.90;;;;;;5051648;28;20470;-67
2023/04/02 05:32:37;;;;;;;15.67;10.87;;;4.10;99.90;;;;;;5054074;28;20892;-65
2023/04/02 05:35:07;;;;;;;11.90;10.70;;;4.10;99.90;;;;;;5054781;28;20459;-66
2023/04/02 05:37:35;;;;;;;13.67;11.00;;;4.10;99.90;;;;;;5055805;28;20773;-66
2023/04/02 05:40:13;;;;;;;16.83;10.37;;;4.10;99.90;;;;;;5055998;28;20458;-65
2023/04/02 05:42:48;;;;;;;11.70;10.50;;;4.00;99.90;;;;;;5055113;28;20462;-66
2023/04/02 05:45:23;;;;;;;12.93;11.53;;;4.00;99.90;;;;;;5055476;28;20468;-64
2023/04/02 05:47:56;;;;;;;14.87;11.80;;;4.00;99.90;;;;;;5055066;28;20712;-66
2023/04/02 05:50:29;;;;;;;17.73;11.70;;;3.90;99.90;;;;;;5055271;28;20537;-65
2023/04/02 05:53:01;;;;;;;16.30;11.07;;;3.80;99.90;;;;;;5048876;28;20749;-64
2023/04/02 05:55:37;;;;;;;14.27;12.33;;;3.80;99.90;;;;;;5054675;28;20561;-66
2023/04/02 05:58:07;;;;;;;16.07;11.57;;;3.80;99.90;;;;;;5054922;28;20462;-63
2023/04/02 06:01:06;;;;;;;15.10;12.70;;;3.60;99.90;;;;;;5052798;28;20436;-66
2023/04/02 06:03:43;;;;;;;18.60;13.03;;;3.60;99.90;;;;;;5043949;28;20520;-65
2023/04/02 06:06:18;;;;;;;16.50;11.30;;;3.60;99.90;;;;;;5036749;28;20459;-67
2023/04/02 06:08:51;;;;;;;17.70;11.23;;;3.60;99.90;;;;;;5043349;28;20482;-65
2023/04/02 06:11:23;;;;;;;17.03;12.40;;;3.50;99.90;;;;;;5056224;28;20494;-66
2023/04/02 06:13:50;;;;;;;18.70;10.77;;;3.60;99.90;;;;;;5055998;28;20466;-65
2023/04/02 06:16:17;;;;;;;14.03;12.50;;;3.60;99.90;;;;;;5056092;28;20462;-65
2023/04/02 06:18:45;;;;;;;20.37;12.10;;;3.50;99.90;;;;;;5039076;28;20476;-66
2023/04/02 06:21:17;;;;;;;18.73;11.83;;;3.50;99.90;;;;;;5056123;28;20441;-66
2023/04/02 06:23:49;;;;;;;15.10;11.00;;;3.50;99.90;;;;;;5054814;28;20437;-64
2023/04/02 06:26:22;;;;;;;18.63;12.30;;;3.50;99.90;;;;;;5053873;28;20460;-66
2023/04/02 06:28:53;;;;;;;16.67;12.40;;;3.50;99.90;;;;;;5054759;28;20478;-65
2023/04/02 06:31:28;;;;;;;20.80;12.67;;;3.50;99.90;;;;;;5054812;28;20990;-65
2023/04/02 06:33:55;;;;;;;14.93;12.10;;;3.50;99.90;;;;;;5053710;28;20499;-65
2023/04/02 06:36:27;;;;;;;19.70;12.27;;;3.60;99.90;;;;;;5053200;28;20862;-66
2023/04/02 06:38:59;;;;;;;17.70;11.17;;;3.60;99.90;;;;;;5054355;28;20500;-66
2023/04/02 06:41:26;;;;;;;13.47;11.00;;;3.60;99.90;;;;;;5054811;28;20783;-66
2023/04/02 06:43:56;;;;;;;14.23;10.83;;;3.50;99.90;;;;;;5054615;28;20455;-65
2023/04/02 06:46:31;;;;;;;18.27;12.03;;;3.40;99.90;;;;;;5054207;28;20467;-65
2023/04/02 06:49:05;;;;;;;15.83;10.83;;;3.40;99.90;;;;;;5054704;28;20489;-65
2023/04/02 06:51:36;;;;;;;18.13;10.47;;;3.50;99.90;;;;;;5054598;28;20553;-65
2023/04/02 06:54:03;;;;;;;14.07;11.17;;;3.50;99.90;;;;;;5052408;28;20470;-65
2023/04/02 06:56:42;;;;;;;12.70;11.07;;;3.60;99.90;;;;;;5054232;28;20462;-65
2023/04/02 06:59:11;;;;;;;16.03;11.73;;;3.60;99.90;;;;;;5054599;28;20453;-65
2023/04/02 07:01:41;;;;;;;14.80;12.20;;;3.60;99.90;;;;;;5058519;28;20568;-65
2023/04/02 07:04:09;;;;;;;15.90;12.27;;;3.40;99.90;;;;;;5057958;28;20469;-64
2023/04/02 07:06:38;;;;;;;16.13;11.73;;;3.50;99.90;;;;;;5058956;28;20466;-65
2023/04/02 07:09:06;;;;;;;14.13;10.70;;;3.40;99.90;;;;;;5059638;28;20486;-66
2023/04/02 07:11:34;;;;;;;16.23;12.23;;;3.50;99.90;;;;;;5059515;28;20938;-65
2023/04/02 07:14:01;;;;;;;14.83;11.47;;;3.50;99.90;;;;;;5059683;28;20545;-66
2023/04/02 07:16:31;;;;;;;17.13;12.13;;;3.50;99.90;;;;;;5059247;28;20959;-63
2023/04/02 07:18:59;;;;;;;16.63;11.33;;;3.50;99.90;;;;;;5059856;28;20468;-65
2023/04/02 07:21:26;;;;;;;15.63;11.30;;;3.50;99.90;;;;;;5058634;28;20462;-66
2023/04/02 07:23:55;;;;;;;11.80;10.53;;;3.60;99.90;;;;;;5058611;28;20473;-65
2023/04/02 07:26:25;;;;;;;17.40;10.77;;;3.50;99.90;;;;;;5058265;28;20914;-66
2023/04/02 07:28:53;;;;;;;18.30;11.03;;;3.40;99.90;;;;;;5057843;28;20499;-65
2023/04/02 07:31:23;;;;;;;14.20;10.80;;;3.40;99.90;;;;;;5059348;28;20921;-66
2023/04/02 07:33:50;;;;;;;12.83;10.00;;;3.40;99.90;;;;;;5060229;28;20945;-65
2023/04/02 07:36:19;;;;;;;14.30;10.53;;;3.40;99.90;;;;;;5058835;28;20466;-66
2023/04/02 07:38:46;;;;;;;12.50;10.33;;;3.50;99.90;;;;;;5058428;28;20588;-66
2023/04/02 07:41:15;;;;;;;16.80;10.97;;;3.50;99.90;;;;;;5059623;28;20541;-65
2023/04/02 07:43:43;;;;;;;17.17;11.70;;;3.40;99.90;;;;;;5059329;28;20447;-64
2023/04/02 07:46:13;;;;;;;17.10;10.77;;;3.50;99.90;;;;;;5058831;28;20462;-65
2023/04/02 07:48:40;;;;;;;17.17;10.40;;;3.50;99.90;;;;;;5058508;28;20564;-65
2023/04/02 07:51:15;;;;;;;15.10;10.83;;;3.50;99.90;;;;;;5058510;28;20532;-64
2023/04/02 07:53:43;;;;;;;14.47;11.07;;;3.50;99.90;;;;;;5058292;28;20462;-66
2023/04/02 07:56:17;;;;;;;13.93;10.60;;;3.50;99.90;;;;;;5057755;28;20501;-66
2023/04/02 07:58:44;;;;;;;16.53;11.20;;;3.50;99.90;;;;;;5057008;28;20477;-64
2023/04/02 08:01:25;;;;;;;12.27;9.97;;;3.60;99.90;;;;;;5057095;28;20928;-63
2023/04/02 08:03:53;;;;;;;12.90;9.80;;;3.60;99.90;;;;;;5038406;28;20463;-67
2023/04/02 08:06:23;;;;;;;14.50;10.70;;;3.50;99.90;;;;;;5037664;28;20908;-65
2023/04/02 08:08:50;;;;;;;14.63;9.20;;;3.50;99.90;;;;;;5049612;28;20470;-65
2023/04/02 08:11:19;;;;;;;12.10;9.37;;;3.50;99.90;;;;;;5053276;28;20484;-65
2023/04/02 08:13:47;;;;;;;10.47;8.20;;;3.50;99.90;;;;;;5056462;28;20766;-65
2023/04/02 08:16:14;;;;;;;12.30;9.50;;;3.40;99.90;;;;;;5055881;28;20462;-65
2023/04/02 08:18:42;;;;;;;12.43;9.13;;;3.50;99.90;;;;;;5056580;28;20503;-65
2023/04/02 08:21:10;;;;;;;12.07;8.10;;;3.50;99.90;;;;;;5055326;28;20557;-65
2023/04/02 08:23:38;;;;;;;17.80;8.33;;;3.50;99.90;;;;;;5054281;28;20515;-65
2023/04/02 08:26:06;;;;;;;9.50;8.30;;;3.50;99.90;;;;;;5053423;28;20561;-64
2023/04/02 08:28:35;;;;;;;12.27;9.53;;;3.40;99.90;;;;;;5054639;28;20949;-65
2023/04/02 08:31:03;;;;;;;9.47;8.37;;;3.50;99.90;;;;;;5054295;28;20588;-64
2023/04/02 08:33:30;;;;;;;12.33;8.80;;;3.50;99.90;;;;;;5054252;28;20473;-65
2023/04/02 08:35:57;;;;;;;13.47;9.43;;;3.40;99.90;;;;;;5053768;28;20445;-64
2023/04/02 08:38:25;;;;;;;10.60;9.03;;;3.50;99.90;;;;;;5054623;28;20829;-65
2023/04/02 08:40:54;;;;;;;9.90;8.10;;;3.60;99.90;;;;;;5054369;28;20469;-64
2023/04/02 08:43:37;;;;;;;9.23;8.10;;;3.60;99.90;;;;;;5054799;28;20489;-65
2023/04/02 08:46:11;;;;;;;11.50;8.50;;;3.60;99.90;;;;;;5055125;28;20463;-64
2023/04/02 08:48:43;;;;;;;10.80;8.10;;;3.60;99.90;;;;;;5054945;28;20462;-64
2023/04/02 08:51:21;;;;;;;9.93;7.77;;;3.60;99.90;;;;;;5053944;28;20486;-65
2023/04/02 08:53:49;;;;;;;9.17;7.63;;;3.60;99.90;;;;;;5056017;28;20472;-66
2023/04/02 08:56:21;;;;;;;10.30;7.93;;;3.60;99.90;;;;;;5055066;28;20514;-64
2023/04/02 08:58:52;;;;;;;10.03;8.00;;;3.70;99.90;;;;;;5055419;28;20553;-65
2023/04/02 09:01:33;;;;;;;10.97;8.60;;;3.70;99.90;;;;;;5055415;28;20572;-66
2023/04/02 09:04:03;;;;;;;13.90;7.90;;;3.90;99.90;;;;;;5055208;28;20904;-66
2023/04/02 09:06:30;;;;;;;8.87;7.37;;;3.90;99.90;;;;;;5054715;28;20512;-66
2023/04/02 09:08:59;;;;;;;11.33;7.33;;;3.90;99.90;;;;;;5054946;28;20553;-64
2023/04/02 09:11:35;;;;;;;9.90;8.47;;;4.00;99.90;;;;;;5056516;28;20501;-66
2023/04/02 09:14:12;;;;;;;8.50;7.60;;;4.00;99.90;;;;;;5057836;28;20458;-65
2023/04/02 09:16:43;;;;;;;9.43;8.00;;;4.00;99.90;;;;;;5057544;28;20486;-64
2023/04/02 09:19:22;;;;;;;12.30;6.80;;;4.00;99.90;;;;;;5057344;28;21009;-66
2023/04/02 09:22:03;;;;;;;12.73;7.73;;;4.00;99.90;;;;;;5056383;28;20457;-68
2023/04/02 09:24:30;;;;;;;12.03;8.20;;;4.00;99.90;;;;;;5055455;28;20489;-67
2023/04/02 09:26:57;;;;;;;9.87;7.40;;;4.00;99.90;;;;;;5055769;28;20899;-67
2023/04/02 09:29:39;;;;;;;9.93;8.00;;;4.20;99.90;;;;;;5055368;28;20473;-67
2023/04/02 09:32:19;;;;;;;8.30;7.10;;;4.30;99.90;;;;;;5056521;28;20890;-66
2023/04/02 09:34:47;;;;;;;9.57;7.17;;;4.30;99.90;;;;;;5056705;28;20513;-64
2023/04/02 09:37:17;;;;;;;8.87;7.30;;;4.30;99.90;;;;;;5057033;28;20600;-67
2023/04/02 09:39:45;;;;;;;13.03;7.50;;;4.20;99.90;;;;;;5053621;28;20459;-65
2023/04/02 09:42:32;;;;;;;8.47;6.50;;;4.20;99.90;;;;;;5057404;28;20549;-67
2023/04/02 09:45:18;;;;;;;11.93;7.20;;;4.30;99.90;;;;;;5055616;28;20545;-67
2023/04/02 09:47:45;;;;;;;10.50;6.83;;;4.30;99.90;;;;;;5050919;28;20466;-66
2023/04/02 09:50:30;;;;;;;10.30;7.33;;;4.60;99.90;;;;;;5055755;28;20493;-65
2023/04/02 09:52:58;;;;;;;12.47;7.10;;;4.60;99.90;;;;;;5055812;28;20454;-67
2023/04/02 09:55:29;;;;;;;8.30;6.80;;;4.60;99.90;;;;;;5052030;28;20450;-68
2023/04/02 09:58:13;;;;;;;12.23;7.80;;;4.70;99.90;;;;;;5054952;28;20458;-67
2023/04/02 10:00:50;;;;;;;9.53;7.53;;;4.70;99.90;;;;;;5054072;28;20481;-67
2023/04/02 10:03:24;;;;;;;8.23;6.50;;;4.60;99.90;;;;;;5054898;28;20465;-67
2023/04/02 10:06:09;;;;;;;8.60;6.27;;;4.70;99.90;;;;;;5054569;28;20548;-68
2023/04/02 10:08:37;;;;;;;8.20;6.40;;;4.80;99.90;;;;;;5054640;28;20466;-68
2023/04/02 10:11:08;;;;;;;8.30;6.33;;;4.80;99.90;;;;;;5054945;28;20491;-67
2023/04/02 10:13:51;;;;;;;7.40;5.90;;;4.90;99.90;;;;;;5056200;28;20467;-68
2023/04/02 10:16:26;;;;;;;7.60;5.40;;;4.80;99.90;;;;;;5056697;28;20523;-67
2023/04/02 10:18:57;;;;;;;6.03;5.23;;;4.90;99.90;;;;;;5056331;28;20523;-67
2023/04/02 10:21:26;;;;;;;8.70;6.00;;;4.80;99.90;;;;;;5056441;28;20754;-68
2023/04/02 10:23:54;;;;;;;8.90;6.13;;;4.80;99.90;;;;;;5055984;28;20458;-67
2023/04/02 10:26:42;;;;;;;8.00;5.80;;;5.10;99.90;;;;;;5056129;28;20482;-67
2023/04/02 10:29:21;;;;;;;7.50;5.70;;;5.10;99.90;;;;;;5056224;28;20470;-67
2023/04/02 10:31:59;;;;;;;8.50;6.23;;;5.10;99.90;;;;;;5056217;28;20544;-67
2023/04/02 10:34:35;;;;;;;7.40;5.57;;;5.20;99.90;;;;;;5056838;28;20561;-67
2023/04/02 10:37:20;;;;;;;7.60;6.23;;;5.20;99.90;;;;;;5060328;28;20547;-69
2023/04/02 10:39:53;;;;;;;10.90;7.00;;;5.40;99.90;;;;;;5059819;28;20468;-66
2023/04/02 10:42:26;;;;;;;7.33;6.63;;;5.20;99.90;;;;;;5059630;28;20506;-67
2023/04/02 10:45:00;;;;;;;7.73;6.30;;;5.30;99.90;;;;;;5059742;28;20480;-68
2023/04/02 10:47:38;;;;;;;11.30;6.20;;;5.20;12.60;;;;;;5060469;28;20516;-66
2023/04/02 10:50:23;;;;;;;7.83;6.27;;;5.30;1.00;;;;;;5060328;28;20583;-66
2023/04/02 10:52:56;;;;;;;9.23;6.27;;;5.40;99.90;;;;;;5059230;28;20532;-67
2023/04/02 10:55:28;;;;;;;5.90;5.30;;;5.50;99.90;;;;;;5059668;28;20458;-68
2023/04/02 10:58:00;;;;;;;11.63;6.80;;;5.50;99.90;;;;;;5059154;28;20462;-69
2023/04/02 11:00:30;;;;;;;7.40;5.47;;;5.60;72.20;;;;;;5059725;28;20446;-66
2023/04/02 11:03:03;;;;;;;8.00;6.53;;;5.50;1.00;;;;;;5058784;28;20780;-66
2023/04/02 11:05:38;;;;;;;6.23;5.03;;;5.80;1.00;;;;;;5060007;28;20469;-67
2023/04/02 11:08:11;;;;;;;7.53;5.70;;;5.80;1.00;;;;;;5059851;28;20465;-66
2023/04/02 11:10:43;;;;;;;9.33;5.50;;;5.80;1.00;;;;;;5059739;28;20781;-68
2023/04/02 11:13:17;;;;;;;10.30;5.90;;;5.80;1.00;;;;;;5059500;28;20463;-69
2023/04/02 11:15:44;;;;;;;7.30;4.87;;;5.80;1.00;;;;;;5058888;28;20462;-68
2023/04/02 11:18:26;;;;;;;8.17;5.60;;;5.80;1.00;;;;;;5059324;28;20451;-69
2023/04/02 11:20:59;;;;;;;6.37;5.00;;;6.00;1.00;;;;;;5059608;28;20504;-69
2023/04/02 11:23:29;;;;;;;6.63;4.80;;;5.80;99.90;;;;;;5057765;28;20680;-68
2023/04/02 11:26:30;;;;;;;8.27;5.80;;;5.80;99.90;;;;;;5056446;28;20485;-68
2023/04/02 11:29:16;;;;;;;8.47;5.20;;;5.90;99.90;;;;;;5056136;28;20459;-69
2023/04/02 11:31:45;;;;;;;6.90;5.00;;;5.80;1.00;;;;;;5047776;28;20482;-68
2023/04/02 11:34:38;;;;;;;8.30;4.60;;;5.80;1.00;;;;;;5056958;28;20473;-70
2023/04/02 11:37:10;;;;;;;6.40;4.57;;;5.50;1.00;;;;;;5053543;28;20793;-69
2023/04/02 11:39:52;;;;;;;8.87;5.80;;;5.40;1.00;;;;;;5055949;28;21067;-68
2023/04/02 11:42:26;;;;;;;5.10;4.60;;;5.40;1.00;;;;;;5055689;28;20466;-67
2023/04/02 11:44:56;;;;;;;5.60;4.50;;;5.80;1.00;;;;;;5052006;28;20490;-67
2023/04/02 11:47:24;;;;;;;6.57;3.83;;;5.90;1.00;;;;;;5054801;28;20497;-68
2023/04/02 11:50:27;;;;;;;7.00;4.33;;;6.00;1.00;;;;;;5055977;28;20559;-68
2023/04/02 11:52:56;;;;;;;7.40;4.77;;;5.80;1.00;;;;;;5056053;28;20887;-68
2023/04/02 11:55:31;;;;;;;5.23;4.30;;;5.90;1.00;;;;;;5054615;28;20458;-68
2023/04/02 11:58:25;;;;;;;5.80;4.50;;;5.90;1.00;;;;;;5057246;28;20838;-68
2023/04/02 12:01:25;;;;;;;8.13;4.10;;;5.90;1.00;;;;;;5055232;28;20481;-69
2023/04/02 12:04:40;;;;;;;4.57;3.77;;;6.00;1.00;;;;;;5057014;28;20531;-69
2023/04/02 12:08:04;;;;;;;5.17;4.00;;;5.90;1.00;;;;;;4973810;28;20484;-68
2023/04/02 12:10:49;;;;;;;4.83;4.00;;;5.90;1.00;;;;;;4974242;28;20492;-68
2023/04/02 12:13:19;;;;;;;7.77;4.33;;;5.90;1.00;;;;;;5056588;28;20920;-68
2023/04/02 12:15:47;;;;;;;7.33;4.30;;;5.90;1.00;;;;;;5049545;28;20985;-68
2023/04/02 12:18:17;;;;;;;7.10;4.17;;;6.00;1.00;;;;;;5047421;28;20475;-68
2023/04/02 12:20:52;;;;;;;5.73;4.20;;;6.00;1.00;;;;;;5053828;28;20454;-68
2023/04/02 12:23:22;;;;;;;4.63;4.13;;;6.10;1.00;;;;;;5055984;28;20446;-68
2023/04/02 12:26:01;;;;;;;6.73;4.20;;;6.10;1.00;;;;;;5054828;28;20585;-69
2023/04/02 12:28:30;;;;;;;6.57;3.90;;;6.10;1.00;;;;;;5055272;28;20454;-68
2023/04/02 12:31:15;;;;;;;6.57;4.40;;;6.20;1.00;;;;;;5057606;28;20467;-68
2023/04/02 12:33:43;;;;;;;7.90;4.83;;;5.90;1.00;;;;;;5058211;28;20458;-66
2023/04/02 12:36:19;;;;;;;5.67;4.30;;;5.90;1.00;;;;;;5056986;28;20486;-67
2023/04/02 12:38:50;;;;;;;4.93;3.30;;;6.10;1.00;;;;;;5054947;28;20485;-66
2023/04/02 12:41:23;;;;;;;6.70;4.10;;;6.00;1.00;;;;;;5057273;28;20890;-66
2023/04/02 12:43:58;;;;;;;10.80;6.00;;;6.20;1.00;;;;;;5055211;28;20462;-65
2023/04/02 12:46:25;;;;;;;8.00;6.33;;;6.20;1.00;;;;;;5056901;28;20473;-66
2023/04/02 12:48:53;;;;;;;6.80;4.43;;;6.20;1.00;;;;;;5057283;28;20465;-66
2023/04/02 12:51:20;;;;;;;7.20;4.27;;;6.00;1.00;;;;;;5055975;28;20942;-68
2023/04/02 12:53:52;;;;;;;5.07;4.00;;;5.90;1.00;;;;;;5056399;28;20436;-66
2023/04/02 12:56:23;;;;;;;3.93;3.27;;;5.80;1.00;;;;;;5057044;28;20558;-65
2023/04/02 12:58:54;;;;;;;9.27;3.70;;;5.80;1.00;;;;;;5056464;28;20429;-66
2023/04/02 13:01:26;;;;;;;5.83;3.90;;;5.80;1.00;;;;;;5056460;28;20559;-66
2023/04/02 13:04:01;;;;;;;6.60;4.33;;;5.80;1.00;;;;;;5057462;28;20556;-67
2023/04/02 13:06:29;;;;;;;7.00;4.17;;;5.70;1.00;;;;;;5057733;28;20508;-66
2023/04/02 13:08:57;;;;;;;4.37;3.70;;;5.70;1.00;;;;;;5057943;28;20524;-67
2023/04/02 13:11:35;;;;;;;5.73;4.10;;;5.70;1.00;;;;;;5057368;28;20585;-65
2023/04/02 13:14:03;;;;;;;5.00;4.50;;;5.60;1.00;;;;;;5058064;28;20462;-66
2023/04/02 13:16:35;;;;;;;6.87;4.10;;;5.60;1.00;;;;;;5057715;28;20750;-66
2023/04/02 13:19:27;;;;;;;7.57;4.47;;;5.70;1.00;;;;;;5057820;28;20729;-66
2023/04/02 13:21:55;;;;;;;6.40;4.30;;;5.90;1.00;;;;;;5056317;28;20450;-67
2023/04/02 13:24:24;;;;;;;4.60;3.80;;;5.90;1.00;;;;;;5057619;28;20452;-65
2023/04/02 13:26:56;;;;;;;5.40;4.23;;;5.80;1.00;;;;;;5057880;28;20458;-66